Time;durP1;ratioP1;P1;durP2;ratioP2;P2;SDS_P1;SDS_P2;PMS_P1;PMS_P2;Temp;Humidity;BMP_temperature;BMP_pressure;BME280_temperature;BME280_humidity;BME280_pressure;Samples;Min_cycle;Max_cycle;Signal;HPM_P1;HPM_P2
2021/01/15 00:00:21;;;;;;;4.43;1.23;;;-3274.70;92.60;;;;;;4974111;28;20157;-81
2021/01/15 00:02:52;;;;;;;1.15;0.60;;;-3274.70;92.60;;;;;;4975396;28;20274;-82
2021/01/15 00:05:19;;;;;;;1.30;0.70;;;-3274.60;92.50;;;;;;4958966;28;20051;-82
2021/01/15 00:07:48;;;;;;;2.92;0.75;;;-3274.50;92.40;;;;;;4976409;28;20203;-84
2021/01/15 00:10:16;;;;;;;1.35;0.77;;;-3274.50;92.70;;;;;;4972853;28;20066;-81
2021/01/15 00:12:43;;;;;;;1.95;0.73;;;-3274.40;93.00;;;;;;4959472;28;20050;-85
2021/01/15 00:15:11;;;;;;;3.38;0.88;;;-3274.40;93.10;;;;;;4973078;28;20073;-82
2021/01/15 00:17:38;;;;;;;1.67;0.60;;;-3274.40;93.30;;;;;;4959730;28;20104;-82
2021/01/15 00:20:07;;;;;;;8.85;1.15;;;-3274.30;92.90;;;;;;4974797;28;20042;-84
2021/01/15 00:22:34;;;;;;;1.88;0.55;;;-3274.40;93.10;;;;;;4958677;28;20043;-83
2021/01/15 00:25:02;;;;;;;4.70;0.82;;;-3274.40;93.00;;;;;;4940720;28;20058;-82
2021/01/15 00:27:30;;;;;;;1.60;0.82;;;-3274.30;93.10;;;;;;4974697;28;20058;-82
2021/01/15 00:29:58;;;;;;;0.82;0.57;;;-3274.40;93.10;;;;;;4972772;28;20062;-85
2021/01/15 00:32:26;;;;;;;3.50;1.02;;;-3274.40;93.10;;;;;;4973344;28;20051;-82
2021/01/15 00:34:53;;;;;;;2.83;1.10;;;-3274.40;93.10;;;;;;4955477;28;20062;-83
2021/01/15 00:37:21;;;;;;;4.00;1.38;;;-3274.40;92.90;;;;;;4957857;28;20055;-83
2021/01/15 00:39:48;;;;;;;1.50;0.73;;;-3274.40;93.00;;;;;;4974462;28;20400;-83
2021/01/15 00:42:15;;;;;;;2.22;0.93;;;-3274.40;92.90;;;;;;4974988;28;20054;-85
2021/01/15 00:44:45;;;;;;;3.40;1.10;;;-3274.30;92.80;;;;;;4974242;28;20067;-82
2021/01/15 00:47:12;;;;;;;2.70;0.88;;;-3274.30;92.80;;;;;;4956878;28;20338;-83
2021/01/15 00:49:39;;;;;;;1.27;0.55;;;-3274.20;92.70;;;;;;4937893;28;20079;-83
2021/01/15 00:52:12;;;;;;;2.13;1.15;;;-3274.20;92.80;;;;;;4957720;28;20054;-82
2021/01/15 00:54:40;;;;;;;1.45;0.65;;;-3274.10;92.70;;;;;;4941892;28;20282;-83
2021/01/15 00:57:07;;;;;;;3.08;1.13;;;-3274.00;92.70;;;;;;4955709;28;20885;-83
2021/01/15 00:59:34;;;;;;;1.70;0.75;;;-3274.00;93.00;;;;;;4977783;28;20109;-82
2021/01/15 01:02:17;;;;;;;3.00;1.35;;;-3273.90;93.10;;;;;;4964666;28;20078;-82
2021/01/15 01:04:45;;;;;;;4.63;1.00;;;-3273.90;93.20;;;;;;4979387;28;20059;-83
2021/01/15 01:07:12;;;;;;;2.60;1.73;;;-3273.90;93.30;;;;;;4954641;28;20059;-81
2021/01/15 01:09:40;;;;;;;2.00;1.02;;;-3273.90;93.40;;;;;;4974568;28;20057;-82
2021/01/15 01:12:07;;;;;;;1.65;0.70;;;-3273.80;93.30;;;;;;4976498;28;20047;-81
2021/01/15 01:14:34;;;;;;;2.50;1.02;;;-3273.80;93.60;;;;;;4956879;28;20054;-82
2021/01/15 01:17:03;;;;;;;6.00;1.20;;;-3273.80;93.30;;;;;;4975987;28;20070;-83
2021/01/15 01:19:30;;;;;;;2.17;0.57;;;-3273.70;93.20;;;;;;4973357;28;20066;-82
2021/01/15 01:21:57;;;;;;;3.05;1.70;;;-3273.80;93.10;;;;;;4958535;28;20062;-83
2021/01/15 01:24:25;;;;;;;3.95;1.90;;;-3273.80;93.20;;;;;;4957203;28;20077;-83
2021/01/15 01:26:53;;;;;;;0.95;0.70;;;-3273.70;93.10;;;;;;4975146;28;20059;-81
2021/01/15 01:29:20;;;;;;;2.63;1.13;;;-3273.80;93.10;;;;;;4960683;28;20281;-82
2021/01/15 01:31:53;;;;;;;2.28;1.00;;;-3273.70;93.00;;;;;;4958232;28;20133;-84
2021/01/15 01:34:20;;;;;;;1.98;1.00;;;-3273.60;93.10;;;;;;4960574;28;20046;-82
2021/01/15 01:36:47;;;;;;;3.03;1.05;;;-3273.60;93.20;;;;;;4976326;28;20069;-81
2021/01/15 01:39:14;;;;;;;2.53;1.17;;;-3273.50;93.30;;;;;;4975463;28;20063;-83
2021/01/15 01:41:41;;;;;;;4.97;1.70;;;-3273.50;93.20;;;;;;4974583;28;20058;-81
2021/01/15 01:44:09;;;;;;;2.95;1.52;;;-3273.40;92.90;;;;;;4975213;28;21978;-83
2021/01/15 01:46:35;;;;;;;3.53;1.27;;;-3273.40;93.10;;;;;;4976349;28;20058;-83
2021/01/15 01:49:03;;;;;;;1.98;0.98;;;-3273.40;93.30;;;;;;4943466;28;20054;-81
2021/01/15 01:51:31;;;;;;;3.53;0.80;;;-3273.30;93.30;;;;;;4960882;28;20089;-82
2021/01/15 01:53:59;;;;;;;4.22;1.42;;;-3273.30;93.40;;;;;;4957528;28;20074;-84
2021/01/15 01:56:27;;;;;;;2.15;1.13;;;-3273.30;93.40;;;;;;4971931;28;20069;-84
2021/01/15 01:58:55;;;;;;;2.30;0.73;;;-3273.30;93.40;;;;;;4944999;28;20050;-83
2021/01/15 02:01:26;;;;;;;1.63;0.80;;;-3273.30;93.50;;;;;;4960553;28;20070;-83
2021/01/15 02:04:00;;;;;;;1.90;0.75;;;-3273.30;93.70;;;;;;4978608;28;20041;-83
2021/01/15 02:06:31;;;;;;;0.55;0.40;;;-3273.40;93.80;;;;;;4959745;28;20391;-82
2021/01/15 02:08:58;;;;;;;1.38;0.60;;;-3273.40;93.50;;;;;;4959847;28;20046;-84
2021/01/15 02:11:33;;;;;;;2.58;0.50;;;-3273.30;93.20;;;;;;4962831;28;20066;-85
2021/01/15 02:14:06;;;;;;;2.35;1.30;;;-3273.30;93.30;;;;;;4965086;28;20053;-85
2021/01/15 02:16:35;;;;;;;2.13;0.93;;;-3273.30;93.50;;;;;;4960844;28;20368;-83
2021/01/15 02:19:23;;;;;;;2.53;1.00;;;-3273.30;93.30;;;;;;4973174;28;20059;-83
2021/01/15 02:22:35;;;;;;;4.85;1.48;;;-3273.20;93.10;;;;;;4957983;28;20486;-84
2021/01/15 02:25:59;;;;;;;5.28;1.60;;;-3273.20;93.20;;;;;;4968018;28;20072;-83
2021/01/15 02:29:07;;;;;;;5.07;2.13;;;-3273.20;92.90;;;;;;4957825;28;20055;-81
2021/01/15 02:32:07;;;;;;;3.10;1.52;;;-3273.20;93.50;;;;;;4959256;28;20050;-86
2021/01/15 02:34:53;;;;;;;2.28;0.77;;;-3273.20;93.60;;;;;;4950878;28;20063;-83
2021/01/15 02:37:26;;;;;;;2.15;1.02;;;-3273.20;93.60;;;;;;4948802;28;20055;-85
2021/01/15 02:40:03;;;;;;;1.75;0.85;;;-3273.10;93.50;;;;;;4960322;28;20063;-81
2021/01/15 02:42:37;;;;;;;2.35;0.88;;;-3273.10;93.60;;;;;;4945325;28;20038;-83
2021/01/15 02:45:08;;;;;;;1.65;0.80;;;-3273.10;93.80;;;;;;4945684;28;20074;-82
2021/01/15 02:47:46;;;;;;;4.03;0.95;;;-3273.10;93.70;;;;;;4949749;28;23304;-82
2021/01/15 02:50:15;;;;;;;3.35;0.82;;;-3273.10;93.70;;;;;;4952778;28;20063;-81
2021/01/15 02:52:43;;;;;;;2.72;1.17;;;-3273.00;93.70;;;;;;4968219;28;20047;-83
2021/01/15 02:55:12;;;;;;;5.85;1.55;;;-3273.00;93.60;;;;;;4949103;28;20325;-82
2021/01/15 02:57:39;;;;;;;1.17;0.47;;;-3272.90;93.30;;;;;;4967817;28;20066;-81
2021/01/15 03:00:08;;;;;;;1.13;0.60;;;-3272.90;93.20;;;;;;4974060;28;20054;-83
2021/01/15 03:02:47;;;;;;;4.65;1.38;;;-3272.80;93.10;;;;;;4949106;28;20157;-84
2021/01/15 03:05:20;;;;;;;3.03;1.35;;;-3272.80;93.30;;;;;;4963428;28;20065;-83
2021/01/15 03:07:50;;;;;;;1.95;0.60;;;-3272.80;93.50;;;;;;4960601;28;20066;-82
2021/01/15 03:10:21;;;;;;;4.50;1.17;;;-3272.80;93.40;;;;;;4944564;28;22108;-81
2021/01/15 03:12:49;;;;;;;1.03;0.80;;;-3272.70;93.40;;;;;;4965775;28;20058;-82
2021/01/15 03:15:18;;;;;;;2.22;0.70;;;-3272.70;93.20;;;;;;4968002;28;20070;-84
2021/01/15 03:17:48;;;;;;;1.63;0.77;;;-3272.70;93.60;;;;;;4970999;28;20054;-82
2021/01/15 03:20:17;;;;;;;1.15;0.80;;;-3272.70;93.50;;;;;;4960724;28;20055;-84
2021/01/15 03:22:47;;;;;;;1.88;0.90;;;-3272.70;93.60;;;;;;4957216;28;20095;-86
2021/01/15 03:25:15;;;;;;;;;;;-3272.70;93.60;;;;;;4961605;28;20139;-82
2021/01/15 03:27:44;;;;;;;0.88;0.40;;;-3272.60;93.60;;;;;;4978548;28;19926;-82
2021/01/15 03:30:14;;;;;;;1.38;0.73;;;-3272.60;93.60;;;;;;4966581;28;20054;-83
2021/01/15 03:32:41;;;;;;;1.55;0.82;;;-3272.60;93.50;;;;;;4973224;28;20057;-84
2021/01/15 03:35:22;;;;;;;1.75;0.75;;;-3272.60;93.50;;;;;;4976328;28;20058;-83
2021/01/15 03:37:56;;;;;;;2.17;1.38;;;-3272.60;93.20;;;;;;4975009;28;20050;-83
2021/01/15 03:40:25;;;;;;;2.85;1.10;;;-3272.60;93.10;;;;;;4977258;28;20058;-82
2021/01/15 03:42:52;;;;;;;4.93;2.42;;;-3272.50;93.00;;;;;;4977804;28;20058;-83
2021/01/15 03:45:19;;;;;;;3.17;1.05;;;-3272.50;93.20;;;;;;4963588;28;20050;-84
2021/01/15 03:47:46;;;;;;;1.98;0.65;;;-3272.50;93.40;;;;;;4946799;28;20623;-84
2021/01/15 03:50:14;;;;;;;1.55;0.52;;;-3272.50;93.30;;;;;;4963300;28;20054;-84
2021/01/15 03:52:42;;;;;;;1.63;0.95;;;-3272.50;93.40;;;;;;4979441;28;20155;-82
2021/01/15 03:55:10;;;;;;;2.83;1.30;;;-3272.40;93.40;;;;;;4979645;28;20118;-82
2021/01/15 03:57:39;;;;;;;1.35;1.00;;;-3272.40;93.30;;;;;;4978224;28;20065;-83
2021/01/15 04:00:08;;;;;;;0.77;0.65;;;-3272.40;93.50;;;;;;4977618;28;20081;-84
2021/01/15 04:02:38;;;;;;;3.97;1.20;;;-3272.40;93.00;;;;;;4975771;28;20046;-83
2021/01/15 04:05:10;;;;;;;2.30;0.68;;;-3272.30;93.00;;;;;;4974079;28;20105;-83
2021/01/15 04:07:38;;;;;;;2.25;1.15;;;-3272.30;93.30;;;;;;4958929;28;20057;-83
2021/01/15 04:10:11;;;;;;;3.08;0.85;;;-3272.20;93.50;;;;;;4958265;28;20070;-82
2021/01/15 04:12:46;;;;;;;2.00;1.10;;;-3272.30;93.60;;;;;;3262307;28;10021664;-85
2021/01/15 04:15:15;;;;;;;1.85;0.88;;;-3272.30;93.80;;;;;;2226896;28;10002298;-83
2021/01/15 04:17:43;;;;;;;1.77;1.13;;;-3272.30;93.90;;;;;;4959473;28;20065;-83
2021/01/15 04:20:12;;;;;;;2.38;1.05;;;-3272.30;93.70;;;;;;4974650;28;20054;-83
2021/01/15 04:22:42;;;;;;;2.33;1.23;;;-3272.20;93.60;;;;;;4956330;28;20055;-82
2021/01/15 04:25:12;;;;;;;2.10;0.77;;;-3272.20;93.10;;;;;;4976402;28;20485;-85
2021/01/15 04:27:40;;;;;;;1.27;1.00;;;-3272.20;93.50;;;;;;4975647;28;20062;-83
2021/01/15 04:30:09;;;;;;;2.22;1.00;;;-3272.10;93.50;;;;;;4976526;28;20065;-85
2021/01/15 04:32:47;;;;;;;2.42;0.90;;;-3272.10;93.50;;;;;;4973350;28;20824;-83
2021/01/15 04:35:19;;;;;;;1.90;1.25;;;-3272.20;93.60;;;;;;4975051;28;20058;-84
2021/01/15 04:37:47;;;;;;;1.02;0.80;;;-3272.10;93.60;;;;;;4959517;28;20046;-83
2021/01/15 04:40:16;;;;;;;2.55;1.00;;;-3272.10;93.60;;;;;;4955062;28;20066;-83
2021/01/15 04:42:44;;;;;;;3.85;0.93;;;-3272.10;93.60;;;;;;4975230;28;20058;-85
2021/01/15 04:45:12;;;;;;;1.35;0.88;;;-3272.10;93.60;;;;;;4975344;28;20077;-82
2021/01/15 04:47:42;;;;;;;2.05;1.48;;;-3272.10;93.60;;;;;;4940666;28;20086;-83
2021/01/15 04:50:13;;;;;;;2.67;1.13;;;-3272.10;93.60;;;;;;4975525;28;20066;-83
2021/01/15 04:52:49;;;;;;;1.88;0.88;;;-3272.00;93.50;;;;;;4973621;28;20161;-83
2021/01/15 04:55:21;;;;;;;2.78;0.90;;;-3272.00;93.40;;;;;;4972785;28;20057;-82
2021/01/15 04:57:51;;;;;;;3.83;1.40;;;-3271.90;93.20;;;;;;4959126;28;20069;-85
2021/01/15 05:00:20;;;;;;;1.50;0.88;;;-3271.90;93.10;;;;;;4976682;28;20219;-84
2021/01/15 05:02:50;;;;;;;10.40;1.67;;;-3271.90;93.20;;;;;;4979251;28;20054;-84
2021/01/15 05:05:22;;;;;;;3.10;1.33;;;-3271.90;93.60;;;;;;4980930;28;20047;-83
2021/01/15 05:08:10;;;;;;;0.90;0.65;;;-3271.90;93.60;;;;;;4978955;28;20249;-84
2021/01/15 05:10:46;;;;;;;4.50;2.35;;;-3271.80;93.60;;;;;;4978876;28;20346;-82
2021/01/15 05:13:17;;;;;;;3.60;2.00;;;-3271.80;93.70;;;;;;4943687;28;20077;-82
2021/01/15 05:15:46;;;;;;;6.53;2.22;;;-3271.80;93.40;;;;;;4961350;28;20421;-82
2021/01/15 05:18:14;;;;;;;2.50;1.40;;;-3271.80;93.60;;;;;;4944316;28;20070;-83
2021/01/15 05:20:42;;;;;;;4.55;2.08;;;-3271.80;93.70;;;;;;4977007;28;20070;-82
2021/01/15 05:23:10;;;;;;;5.95;1.30;;;-3271.90;93.80;;;;;;4978479;28;20070;-84
2021/01/15 05:25:42;;;;;;;3.53;1.02;;;-3271.90;93.70;;;;;;4975498;28;20069;-85
2021/01/15 05:28:10;;;;;;;4.18;1.63;;;-3271.80;93.50;;;;;;4976616;28;20069;-83
2021/01/15 05:30:41;;;;;;;7.95;2.58;;;-3271.80;93.40;;;;;;4961976;28;20049;-84
2021/01/15 05:33:14;;;;;;;5.28;1.42;;;-3271.80;93.40;;;;;;4958039;28;20058;-83
2021/01/15 05:35:46;;;;;;;4.32;1.73;;;-3271.90;93.50;;;;;;4961401;28;20334;-83
2021/01/15 05:38:15;;;;;;;8.70;2.17;;;-3271.90;93.00;;;;;;4960134;28;20058;-83
2021/01/15 05:40:44;;;;;;;6.60;1.52;;;-3271.80;92.80;;;;;;4977616;28;20121;-83
2021/01/15 05:43:25;;;;;;;8.63;2.35;;;-3271.70;92.90;;;;;;4959286;28;20051;-84
2021/01/15 05:46:14;;;;;;;4.00;1.90;;;-3271.70;93.10;;;;;;4977391;28;20058;-83
2021/01/15 05:48:45;;;;;;;4.55;2.17;;;-3271.70;93.30;;;;;;4965492;28;20170;-83
2021/01/15 05:51:29;;;;;;;;;;;-3271.80;93.40;;;;;;4979835;28;20054;-84
2021/01/15 05:53:57;;;;;;;10.38;4.35;;;-3271.70;93.40;;;;;;4960901;28;19957;-83
2021/01/15 05:56:36;;;;;;;18.83;2.83;;;-3271.80;93.50;;;;;;4980171;28;20608;-83
2021/01/15 05:59:06;;;;;;;10.35;4.50;;;-3271.80;93.40;;;;;;4977923;28;20085;-84
2021/01/15 06:01:48;;;;;;;19.52;5.55;;;-3271.70;93.20;;;;;;4975870;28;20066;-83
2021/01/15 06:04:19;;;;;;;14.25;4.47;;;-3271.70;93.10;;;;;;4976538;28;20385;-83
2021/01/15 06:06:51;;;;;;;14.23;5.03;;;-3271.60;92.90;;;;;;4963633;28;20065;-85
2021/01/15 06:09:22;;;;;;;3.75;1.95;;;-3271.60;93.00;;;;;;4946059;28;20054;-85
2021/01/15 06:11:50;;;;;;;9.98;3.53;;;-3271.60;93.20;;;;;;4976486;28;20065;-84
2021/01/15 06:14:20;;;;;;;11.70;4.18;;;-3271.60;93.10;;;;;;4978212;28;20043;-83
2021/01/15 06:16:47;;;;;;;3.65;1.65;;;-3271.60;93.40;;;;;;4955536;28;20071;-82
2021/01/15 06:19:14;;;;;;;7.70;2.72;;;-3271.60;93.00;;;;;;4961226;28;20579;-82
2021/01/15 06:21:52;;;;;;;7.05;3.00;;;-3271.60;93.10;;;;;;4960509;28;20073;-82
2021/01/15 06:24:23;;;;;;;3.15;1.73;;;-3271.50;93.10;;;;;;4958696;28;20119;-81
2021/01/15 06:27:05;;;;;;;13.80;1.95;;;-3271.60;93.40;;;;;;4957136;28;20058;-84
2021/01/15 06:29:44;;;;;;;4.93;2.22;;;-3271.60;93.60;;;;;;4958681;28;21902;-82
2021/01/15 06:32:24;;;;;;;5.30;2.55;;;-3271.70;93.20;;;;;;4961227;28;20110;-84
2021/01/15 06:34:54;;;;;;;8.05;1.92;;;-3271.70;93.30;;;;;;4973939;28;20057;-83
2021/01/15 06:37:21;;;;;;;4.28;1.55;;;-3271.70;93.20;;;;;;4961853;28;20803;-83
2021/01/15 06:40:06;;;;;;;6.97;2.45;;;-3271.70;93.10;;;;;;4959436;28;20338;-82
2021/01/15 06:42:44;;;;;;;3.75;1.52;;;-3271.70;93.30;;;;;;4957725;28;20059;-82
2021/01/15 06:45:13;;;;;;;5.93;2.80;;;-3271.70;92.80;;;;;;4958642;28;20062;-84
2021/01/15 06:47:42;;;;;;;4.78;1.83;;;-3271.70;92.90;;;;;;4973966;28;20051;-83
2021/01/15 06:50:15;;;;;;;3.42;2.05;;;-3271.80;92.60;;;;;;4956535;28;20063;-84
2021/01/15 06:52:47;;;;;;;14.20;3.00;;;-3271.70;92.60;;;;;;4960300;28;20055;-81
2021/01/15 06:55:17;;;;;;;5.70;2.75;;;-3271.70;92.70;;;;;;4938413;28;20575;-84
2021/01/15 06:57:47;;;;;;;4.13;2.20;;;-3271.60;92.70;;;;;;4956984;28;20051;-83
2021/01/15 07:00:23;;;;;;;7.82;3.38;;;-3271.70;93.10;;;;;;4960349;28;20059;-84
2021/01/15 07:03:24;;;;;;;4.53;1.33;;;-3271.70;92.80;;;;;;4953905;28;20059;-84
2021/01/15 07:05:53;;;;;;;3.13;1.88;;;-3271.60;92.40;;;;;;4925261;28;20262;-83
2021/01/15 07:08:23;;;;;;;4.97;2.13;;;-3271.70;92.90;;;;;;4957866;28;20130;-84
2021/01/15 07:10:51;;;;;;;6.75;2.63;;;-3271.80;92.90;;;;;;4938655;28;20069;-83
2021/01/15 07:13:26;;;;;;;5.90;2.83;;;-3271.90;92.80;;;;;;4955303;28;20055;-85
2021/01/15 07:15:55;;;;;;;4.30;2.30;;;-3271.90;92.40;;;;;;4955597;28;20601;-82
2021/01/15 07:18:38;;;;;;;4.63;2.78;;;-3271.90;92.50;;;;;;4974228;28;20059;-81
2021/01/15 07:21:08;;;;;;;3.67;2.90;;;-3272.00;92.70;;;;;;4971828;28;20471;-84
2021/01/15 07:23:53;;;;;;;6.53;2.47;;;-3272.00;92.70;;;;;;4952877;28;20059;-82
2021/01/15 07:26:23;;;;;;;5.78;2.38;;;-3272.10;92.50;;;;;;4956338;28;20190;-82
2021/01/15 07:28:58;;;;;;;3.75;2.17;;;-3272.10;92.20;;;;;;4970504;28;20050;-82
2021/01/15 07:31:28;;;;;;;4.25;1.85;;;-3272.10;92.10;;;;;;4958646;28;20051;-84
2021/01/15 07:33:59;;;;;;;7.53;4.13;;;-3272.10;92.20;;;;;;4957745;28;20110;-81
2021/01/15 07:36:32;;;;;;;;;;;-3272.10;91.90;;;;;;4975053;28;20063;-82
2021/01/15 07:39:05;;;;;;;3.22;1.92;;;-3272.10;92.10;;;;;;4972588;28;19961;-82
2021/01/15 07:41:40;;;;;;;2.22;1.20;;;-3272.30;91.50;;;;;;4958713;28;20081;-81
2021/01/15 07:44:41;;;;;;;4.20;2.67;;;-3272.20;91.30;;;;;;4940044;28;20047;-80
2021/01/15 07:47:21;;;;;;;8.73;3.25;;;-3272.20;91.30;;;;;;4953014;28;20164;-83
2021/01/15 07:49:49;;;;;;;6.53;2.60;;;-3272.20;91.20;;;;;;4956901;28;20066;-83
2021/01/15 07:52:19;;;;;;;2.13;1.45;;;-3272.30;91.50;;;;;;4974507;28;20158;-82
2021/01/15 07:55:03;;;;;;;7.97;4.28;;;-3272.40;91.30;;;;;;4955104;28;20130;-82
2021/01/15 07:57:33;;;;;;;3.08;2.33;;;-3272.30;91.00;;;;;;4960056;28;20050;-81
2021/01/15 08:00:24;;;;;;;5.13;2.92;;;-3272.30;91.10;;;;;;4957568;28;20059;-84
2021/01/15 08:03:11;;;;;;;4.32;2.75;;;-3272.30;91.30;;;;;;4973403;28;20066;-82
2021/01/15 08:05:39;;;;;;;4.72;2.65;;;-3272.30;91.10;;;;;;4974494;28;20063;-81
2021/01/15 08:08:13;;;;;;;3.97;2.55;;;-3272.30;90.70;;;;;;4976860;28;20065;-82
2021/01/15 08:10:48;;;;;;;4.35;3.20;;;-3272.40;91.10;;;;;;4958012;28;20098;-81
2021/01/15 08:13:24;;;;;;;17.92;4.55;;;-3272.50;90.50;;;;;;4960418;28;20098;-82
2021/01/15 08:15:51;;;;;;;10.77;4.80;;;-3272.60;90.50;;;;;;4933039;29;20063;-82
2021/01/15 08:18:21;;;;;;;10.52;4.30;;;-3272.70;90.20;;;;;;4940802;29;20047;-83
2021/01/15 08:21:05;;;;;;;6.05;3.08;;;-3272.90;90.30;;;;;;4946247;29;20071;-82
2021/01/15 08:23:35;;;;;;;6.63;3.00;;;-3272.90;89.80;;;;;;4961479;28;20063;-84
2021/01/15 08:26:25;;;;;;;4.53;2.90;;;-3273.00;90.00;;;;;;4959938;28;20058;-81
2021/01/15 08:28:52;;;;;;;5.18;2.17;;;-3273.30;89.50;;;;;;4948642;28;20083;-81
2021/01/15 08:31:22;;;;;;;7.60;5.00;;;-3273.40;88.90;;;;;;4960083;28;20086;-83
2021/01/15 08:34:06;;;;;;;13.82;3.47;;;-3273.50;88.60;;;;;;4938913;29;20055;-82
2021/01/15 08:36:35;;;;;;;5.20;3.03;;;-3273.60;88.10;;;;;;4954697;28;20354;-84
2021/01/15 08:39:04;;;;;;;12.73;3.13;;;-3273.60;88.10;;;;;;4940393;29;20055;-82
2021/01/15 08:41:33;;;;;;;6.35;2.92;;;-3273.70;87.80;;;;;;4939492;29;20067;-82
2021/01/15 08:44:00;;;;;;;9.25;4.90;;;-3273.80;87.80;;;;;;4942243;29;20075;-82
2021/01/15 08:46:28;;;;;;;9.85;5.15;;;-3273.90;87.40;;;;;;4938619;29;20075;-82
2021/01/15 08:48:56;;;;;;;7.53;3.90;;;-3274.00;87.40;;;;;;4921702;29;20119;-82
2021/01/15 08:51:25;;;;;;;11.52;5.00;;;-3274.10;87.00;;;;;;4940654;28;20051;-82
2021/01/15 08:54:04;;;;;;;19.40;9.60;;;-3274.20;86.80;;;;;;4943828;29;22735;-82
2021/01/15 08:56:35;;;;;;;23.52;9.45;;;-3274.30;86.50;;;;;;4936533;29;20087;-84
2021/01/15 08:59:03;;;;;;;22.38;11.23;;;-3274.40;86.40;;;;;;4958630;28;20051;-83
2021/01/15 09:01:33;;;;;;;14.52;7.43;;;-3274.40;86.50;;;;;;4938703;29;20067;-82
2021/01/15 09:04:05;;;;;;;16.48;5.63;;;-3274.50;86.80;;;;;;4942560;29;20060;-81
2021/01/15 09:06:38;;;;;;;24.98;12.38;;;-3274.60;86.10;;;;;;4939043;29;20051;-81
2021/01/15 09:09:08;;;;;;;11.68;5.68;;;-3274.60;85.90;;;;;;4939546;29;20386;-83
2021/01/15 09:11:37;;;;;;;13.90;5.23;;;-3274.70;85.60;;;;;;4941387;29;20258;-82
2021/01/15 09:14:05;;;;;;;11.75;5.03;;;-3274.70;85.10;;;;;;4940292;29;20339;-82
2021/01/15 09:16:33;;;;;;;20.85;9.00;;;-3274.70;85.00;;;;;;4936729;28;20059;-83
2021/01/15 09:19:08;;;;;;;12.63;6.03;;;-3274.90;84.80;;;;;;4957269;28;20266;-82
2021/01/15 09:21:46;;;;;;;9.75;3.88;;;-3274.90;84.80;;;;;;4954597;28;20066;-81
2021/01/15 09:24:13;;;;;;;6.30;2.90;;;-3275.00;84.80;;;;;;4954056;28;20055;-80
2021/01/15 09:26:42;;;;;;;6.43;3.55;;;-3275.00;84.40;;;;;;4956167;28;20562;-81
2021/01/15 09:29:09;;;;;;;7.40;3.70;;;-3275.00;84.60;;;;;;4935735;28;20058;-82
2021/01/15 09:31:38;;;;;;;4.75;2.25;;;-3275.00;84.50;;;;;;4972695;28;20063;-82
2021/01/15 09:34:06;;;;;;;6.45;3.03;;;-3275.10;84.80;;;;;;4972864;28;20246;-82
2021/01/15 09:36:33;;;;;;;6.38;3.03;;;-3275.10;83.90;;;;;;4957427;28;20055;-81
2021/01/15 09:39:05;;;;;;;8.93;3.85;;;-3275.30;84.10;;;;;;4956188;28;20130;-81
2021/01/15 09:41:43;;;;;;;9.20;4.07;;;-3275.30;84.20;;;;;;4953801;28;20075;-81
2021/01/15 09:44:12;;;;;;;8.77;3.50;;;-3275.40;83.60;;;;;;4952495;28;20078;-81
2021/01/15 09:46:41;;;;;;;9.10;3.67;;;-3275.40;84.00;;;;;;4954930;28;20059;-81
2021/01/15 09:49:10;;;;;;;10.18;4.60;;;-3275.40;84.00;;;;;;4956083;28;20063;-83
2021/01/15 09:51:43;;;;;;;11.55;3.85;;;-3275.50;84.00;;;;;;4959952;28;20357;-82
2021/01/15 09:54:13;;;;;;;8.43;4.50;;;-3275.50;83.40;;;;;;4955720;28;20054;-80
2021/01/15 09:56:49;;;;;;;9.30;5.32;;;-3275.60;83.50;;;;;;4959306;28;20092;-81
2021/01/15 09:59:26;;;;;;;9.50;3.72;;;-3275.70;83.50;;;;;;4955811;28;20062;-81
2021/01/15 10:01:53;;;;;;;12.43;4.97;;;-3275.70;83.30;;;;;;4957036;28;20179;-81
2021/01/15 10:04:32;;;;;;;10.52;5.03;;;-3275.80;83.20;;;;;;4973405;28;20055;-80
2021/01/15 10:07:05;;;;;;;12.57;5.50;;;-3275.80;83.40;;;;;;4976508;28;20051;-82
2021/01/15 10:09:33;;;;;;;7.50;3.97;;;-3275.70;83.60;;;;;;4957943;28;20059;-81
2021/01/15 10:12:03;;;;;;;11.48;4.53;;;-3275.70;83.90;;;;;;4957002;28;20242;-83
2021/01/15 10:14:30;;;;;;;11.73;5.45;;;-3275.80;83.90;;;;;;4955547;28;20055;-82
2021/01/15 10:16:57;;;;;;;11.65;5.95;;;-3275.90;83.70;;;;;;4962754;28;20361;-82
2021/01/15 10:19:26;;;;;;;13.73;5.03;;;-3275.90;83.80;;;;;;4977421;28;20054;-83
2021/01/15 10:21:53;;;;;;;11.48;5.90;;;-3275.70;83.80;;;;;;4962168;28;20058;-83
2021/01/15 10:24:21;;;;;;;10.73;5.55;;;-3275.80;84.70;;;;;;4977027;28;20059;-84
2021/01/15 10:26:49;;;;;;;11.52;6.43;;;-3276.00;84.50;;;;;;4979191;28;20388;-82
2021/01/15 10:29:16;;;;;;;13.57;6.25;;;-3276.10;83.60;;;;;;4976105;28;20078;-82
2021/01/15 10:31:48;;;;;;;9.30;5.78;;;-3276.00;83.60;;;;;;4979612;28;20058;-82
2021/01/15 10:34:22;;;;;;;10.60;4.63;;;-3276.10;84.00;;;;;;4960583;28;20159;-82
2021/01/15 10:36:53;;;;;;;14.73;6.22;;;-3276.30;83.90;;;;;;4975791;28;20059;-83
2021/01/15 10:39:23;;;;;;;13.32;6.75;;;-3276.30;83.60;;;;;;4960400;28;20405;-82
2021/01/15 10:41:51;;;;;;;13.27;6.93;;;-3276.50;83.50;;;;;;4960227;28;20322;-81
2021/01/15 10:44:20;;;;;;;11.65;4.97;;;-3276.60;83.20;;;;;;4961115;28;20058;-85
2021/01/15 10:46:52;;;;;;;11.93;6.10;;;-3276.60;83.10;;;;;;4974783;28;20110;-85
2021/01/15 10:49:23;;;;;;;11.25;6.88;;;-3276.70;82.70;;;;;;4978448;28;20266;-82
2021/01/15 10:51:54;;;;;;;11.05;5.65;;;0.10;82.00;;;;;;4960089;28;20050;-83
2021/01/15 10:54:26;;;;;;;9.75;5.45;;;0.10;81.60;;;;;;4958392;28;20055;-85
2021/01/15 10:56:54;;;;;;;11.90;6.80;;;0.10;81.40;;;;;;4945273;28;20178;-82
2021/01/15 10:59:21;;;;;;;12.70;5.30;;;0.20;81.50;;;;;;4973186;28;20346;-83
2021/01/15 11:01:49;;;;;;;13.05;5.68;;;0.30;80.90;;;;;;4978013;28;22781;-84
2021/01/15 11:04:18;;;;;;;16.45;7.50;;;0.40;81.10;;;;;;4958538;28;20054;-85
2021/01/15 11:06:47;;;;;;;9.93;5.32;;;0.40;79.90;;;;;;4982901;28;20062;-83
2021/01/15 11:09:16;;;;;;;13.85;7.55;;;0.30;81.30;;;;;;4980061;28;20054;-83
2021/01/15 11:11:46;;;;;;;9.52;5.28;;;0.50;80.20;;;;;;4965222;28;20070;-82
2021/01/15 11:14:16;;;;;;;15.32;7.00;;;0.70;79.70;;;;;;4965406;28;20389;-82
2021/01/15 11:16:43;;;;;;;8.57;5.00;;;1.00;79.30;;;;;;4982516;28;20342;-83
2021/01/15 11:19:13;;;;;;;13.32;5.32;;;0.50;77.50;;;;;;4966992;28;20254;-84
2021/01/15 11:21:41;;;;;;;12.18;5.63;;;0.90;79.50;;;;;;4983135;28;20074;-84
2021/01/15 11:24:09;;;;;;;8.68;4.55;;;1.20;77.30;;;;;;4968032;28;20344;-84
2021/01/15 11:26:37;;;;;;;8.98;3.80;;;1.10;78.00;;;;;;4980616;28;20055;-86
2021/01/15 11:29:07;;;;;;;9.77;3.97;;;1.00;77.90;;;;;;4985115;28;20117;-83
2021/01/15 11:31:36;;;;;;;7.15;4.45;;;1.20;77.00;;;;;;4965511;28;20050;-85
2021/01/15 11:34:03;;;;;;;10.55;5.35;;;1.00;78.30;;;;;;4983147;28;20050;-83
2021/01/15 11:36:31;;;;;;;12.50;4.65;;;1.10;77.30;;;;;;4955831;28;20150;-83
2021/01/15 11:39:00;;;;;;;10.48;4.65;;;1.00;75.90;;;;;;4967113;28;20117;-85
2021/01/15 11:41:28;;;;;;;8.18;4.57;;;0.70;77.60;;;;;;4982476;28;21610;-81
2021/01/15 11:43:55;;;;;;;10.07;3.80;;;0.70;79.10;;;;;;4965346;28;20043;-81
2021/01/15 11:46:22;;;;;;;8.68;4.32;;;0.70;78.30;;;;;;4979611;28;20086;-84
2021/01/15 11:48:50;;;;;;;10.88;4.55;;;0.50;79.30;;;;;;4969941;28;20070;-83
2021/01/15 11:51:17;;;;;;;7.07;3.95;;;0.40;79.50;;;;;;4963321;28;20055;-85
2021/01/15 11:53:44;;;;;;;12.07;5.22;;;0.50;79.20;;;;;;4966852;28;20050;-85
2021/01/15 11:56:11;;;;;;;14.13;6.13;;;0.60;79.60;;;;;;4983003;28;20059;-84
2021/01/15 11:58:38;;;;;;;12.70;5.07;;;0.50;80.10;;;;;;4949916;28;20050;-84
2021/01/15 12:01:06;;;;;;;11.52;5.28;;;0.70;80.30;;;;;;4982727;28;20313;-83
2021/01/15 12:03:35;;;;;;;10.40;4.88;;;0.80;80.00;;;;;;4984522;28;20106;-84
2021/01/15 12:06:08;;;;;;;8.05;4.00;;;0.80;80.10;;;;;;4964803;28;20237;-82
2021/01/15 12:08:35;;;;;;;8.50;4.70;;;0.50;81.10;;;;;;4982629;28;20135;-85
2021/01/15 12:11:06;;;;;;;9.05;4.55;;;0.60;81.30;;;;;;4980933;28;20065;-84
2021/01/15 12:13:34;;;;;;;10.10;4.75;;;0.40;81.90;;;;;;4968221;28;20062;-83
2021/01/15 12:16:10;;;;;;;13.13;4.60;;;0.50;82.20;;;;;;4978044;28;20066;-86
2021/01/15 12:18:37;;;;;;;10.18;4.53;;;0.50;81.90;;;;;;4953589;28;20169;-84
2021/01/15 12:21:17;;;;;;;11.23;4.78;;;0.70;82.10;;;;;;4983512;28;20054;-87
2021/01/15 12:23:45;;;;;;;22.67;6.50;;;0.70;81.50;;;;;;4966585;28;20062;-86
2021/01/15 12:26:12;;;;;;;12.23;5.32;;;0.60;82.00;;;;;;4980230;28;20116;-82
2021/01/15 12:28:39;;;;;;;9.85;4.80;;;0.50;82.10;;;;;;4964907;28;20054;-82
2021/01/15 12:31:07;;;;;;;14.70;5.63;;;0.60;82.80;;;;;;4980503;28;20062;-83
2021/01/15 12:33:39;;;;;;;10.13;5.35;;;0.60;82.30;;;;;;4966136;28;20057;-84
2021/01/15 12:36:10;;;;;;;9.48;5.50;;;0.60;82.50;;;;;;4962628;28;20058;-83
2021/01/15 12:38:38;;;;;;;;;;;0.70;82.70;;;;;;4979832;28;20064;-83
2021/01/15 12:41:06;;;;;;;11.70;5.28;;;0.90;81.80;;;;;;4979018;28;19933;-84